sensor_id;sensor_type;location;lat;lon;timestamp;temperature;humidity
17948;DHT22;9099;47.958;11.366;2023-05-10T00:01:43;14.30;99.90
17948;DHT22;9099;47.958;11.366;2023-05-10T00:04:10;14.30;99.90
17948;DHT22;9099;47.958;11.366;2023-05-10T00:06:37;14.30;99.90
17948;DHT22;9099;47.958;11.366;2023-05-10T00:09:04;14.30;99.90
17948;DHT22;9099;47.958;11.366;2023-05-10T00:11:32;14.30;99.90
17948;DHT22;9099;47.958;11.366;2023-05-10T00:13:59;14.40;99.90
17948;DHT22;9099;47.958;11.366;2023-05-10T00:16:25;14.40;99.90
17948;DHT22;9099;47.958;11.366;2023-05-10T00:18:52;14.30;99.90
17948;DHT22;9099;47.958;11.366;2023-05-10T00:21:19;14.30;99.90
17948;DHT22;9099;47.958;11.366;2023-05-10T00:23:46;14.30;99.90
17948;DHT22;9099;47.958;11.366;2023-05-10T00:26:13;14.20;99.90
17948;DHT22;9099;47.958;11.366;2023-05-10T00:28:41;14.20;99.90
17948;DHT22;9099;47.958;11.366;2023-05-10T00:31:08;14.20;99.90
17948;DHT22;9099;47.958;11.366;2023-05-10T00:33:35;14.10;99.90
17948;DHT22;9099;47.958;11.366;2023-05-10T00:36:02;14.00;99.90
17948;DHT22;9099;47.958;11.366;2023-05-10T00:38:29;14.00;99.90
17948;DHT22;9099;47.958;11.366;2023-05-10T00:40:56;14.00;99.90
17948;DHT22;9099;47.958;11.366;2023-05-10T00:43:23;14.10;99.90
17948;DHT22;9099;47.958;11.366;2023-05-10T00:45:51;14.10;99.90
17948;DHT22;9099;47.958;11.366;2023-05-10T00:48:19;14.10;99.90
17948;DHT22;9099;47.958;11.366;2023-05-10T00:50:46;14.10;99.90
17948;DHT22;9099;47.958;11.366;2023-05-10T00:53:14;14.10;99.90
17948;DHT22;9099;47.958;11.366;2023-05-10T00:55:41;14.10;99.90
17948;DHT22;9099;47.958;11.366;2023-05-10T00:58:08;14.20;99.90
17948;DHT22;9099;47.958;11.366;2023-05-10T01:00:35;14.20;99.90
17948;DHT22;9099;47.958;11.366;2023-05-10T01:03:04;14.20;99.90
17948;DHT22;9099;47.958;11.366;2023-05-10T01:05:31;14.20;99.90
17948;DHT22;9099;47.958;11.366;2023-05-10T01:07:58;14.20;99.90
17948;DHT22;9099;47.958;11.366;2023-05-10T01:10:25;14.20;99.90
17948;DHT22;9099;47.958;11.366;2023-05-10T01:12:52;14.20;99.90
17948;DHT22;9099;47.958;11.366;2023-05-10T01:15:20;14.20;99.90
17948;DHT22;9099;47.958;11.366;2023-05-10T01:17:48;14.00;99.90
17948;DHT22;9099;47.958;11.366;2023-05-10T01:20:16;14.10;99.90
17948;DHT22;9099;47.958;11.366;2023-05-10T01:23:02;14.00;99.90
17948;DHT22;9099;47.958;11.366;2023-05-10T01:28:43;14.00;99.90
17948;DHT22;9099;47.958;11.366;2023-05-10T01:31:40;14.00;99.90
17948;DHT22;9099;47.958;11.366;2023-05-10T01:34:16;14.00;99.90
17948;DHT22;9099;47.958;11.366;2023-05-10T01:36:47;14.00;99.90
17948;DHT22;9099;47.958;11.366;2023-05-10T01:39:18;14.00;99.90
17948;DHT22;9099;47.958;11.366;2023-05-10T01:41:50;14.00;99.90
17948;DHT22;9099;47.958;11.366;2023-05-10T01:44:24;14.00;99.90
17948;DHT22;9099;47.958;11.366;2023-05-10T01:47:01;14.00;99.90
17948;DHT22;9099;47.958;11.366;2023-05-10T01:49:36;13.90;99.90
17948;DHT22;9099;47.958;11.366;2023-05-10T01:52:10;13.90;99.90
17948;DHT22;9099;47.958;11.366;2023-05-10T01:54:41;13.90;99.90
17948;DHT22;9099;47.958;11.366;2023-05-10T01:57:10;13.80;99.90
17948;DHT22;9099;47.958;11.366;2023-05-10T01:59:39;13.80;99.90
17948;DHT22;9099;47.958;11.366;2023-05-10T02:02:07;13.70;99.90
17948;DHT22;9099;47.958;11.366;2023-05-10T02:04:39;13.70;99.90
17948;DHT22;9099;47.958;11.366;2023-05-10T02:07:08;13.80;99.90
17948;DHT22;9099;47.958;11.366;2023-05-10T02:09:36;13.80;99.90
17948;DHT22;9099;47.958;11.366;2023-05-10T02:12:05;13.90;99.90
17948;DHT22;9099;47.958;11.366;2023-05-10T02:14:35;13.90;99.90
17948;DHT22;9099;47.958;11.366;2023-05-10T02:17:04;13.90;99.90
17948;DHT22;9099;47.958;11.366;2023-05-10T02:19:32;13.90;99.90
17948;DHT22;9099;47.958;11.366;2023-05-10T02:22:01;13.80;99.90
17948;DHT22;9099;47.958;11.366;2023-05-10T02:24:28;13.80;99.90
17948;DHT22;9099;47.958;11.366;2023-05-10T02:26:56;13.80;99.90
17948;DHT22;9099;47.958;11.366;2023-05-10T02:29:25;13.80;99.90
17948;DHT22;9099;47.958;11.366;2023-05-10T02:31:54;13.80;99.90
17948;DHT22;9099;47.958;11.366;2023-05-10T02:34:23;13.80;99.90
17948;DHT22;9099;47.958;11.366;2023-05-10T02:36:51;13.80;99.90
17948;DHT22;9099;47.958;11.366;2023-05-10T02:39:21;13.80;99.90
17948;DHT22;9099;47.958;11.366;2023-05-10T02:41:49;13.80;99.90
17948;DHT22;9099;47.958;11.366;2023-05-10T02:44:18;13.80;99.90
17948;DHT22;9099;47.958;11.366;2023-05-10T02:46:46;13.70;99.90
17948;DHT22;9099;47.958;11.366;2023-05-10T02:49:13;13.80;99.90
17948;DHT22;9099;47.958;11.366;2023-05-10T02:51:44;13.70;99.90
17948;DHT22;9099;47.958;11.366;2023-05-10T02:54:27;13.70;99.90
17948;DHT22;9099;47.958;11.366;2023-05-10T02:56:58;13.70;99.90
17948;DHT22;9099;47.958;11.366;2023-05-10T02:59:26;13.80;99.90
17948;DHT22;9099;47.958;11.366;2023-05-10T03:01:53;13.60;99.90
17948;DHT22;9099;47.958;11.366;2023-05-10T03:04:20;13.60;99.90
17948;DHT22;9099;47.958;11.366;2023-05-10T03:06:47;13.50;99.90
17948;DHT22;9099;47.958;11.366;2023-05-10T03:09:14;13.50;99.90
17948;DHT22;9099;47.958;11.366;2023-05-10T03:11:50;13.50;99.90
17948;DHT22;9099;47.958;11.366;2023-05-10T03:14:25;13.50;99.90
17948;DHT22;9099;47.958;11.366;2023-05-10T03:17:02;13.50;99.90
17948;DHT22;9099;47.958;11.366;2023-05-10T03:19:36;13.40;99.90
17948;DHT22;9099;47.958;11.366;2023-05-10T03:22:10;13.50;99.90
17948;DHT22;9099;47.958;11.366;2023-05-10T03:24:39;13.40;99.90
17948;DHT22;9099;47.958;11.366;2023-05-10T03:27:10;13.40;99.90
17948;DHT22;9099;47.958;11.366;2023-05-10T03:29:38;13.50;99.90
17948;DHT22;9099;47.958;11.366;2023-05-10T03:32:05;13.50;99.90
17948;DHT22;9099;47.958;11.366;2023-05-10T03:34:32;13.50;99.90
17948;DHT22;9099;47.958;11.366;2023-05-10T03:36:59;13.50;99.90
17948;DHT22;9099;47.958;11.366;2023-05-10T03:39:26;13.50;99.90
17948;DHT22;9099;47.958;11.366;2023-05-10T03:41:53;13.50;99.90
17948;DHT22;9099;47.958;11.366;2023-05-10T03:44:21;13.50;99.90
17948;DHT22;9099;47.958;11.366;2023-05-10T03:46:48;13.50;99.90
17948;DHT22;9099;47.958;11.366;2023-05-10T03:49:14;13.50;99.90
17948;DHT22;9099;47.958;11.366;2023-05-10T03:51:41;13.50;99.90
17948;DHT22;9099;47.958;11.366;2023-05-10T03:54:08;13.50;99.90
17948;DHT22;9099;47.958;11.366;2023-05-10T03:56:35;13.50;99.90
17948;DHT22;9099;47.958;11.366;2023-05-10T03:59:02;13.40;99.90
17948;DHT22;9099;47.958;11.366;2023-05-10T04:01:34;13.40;99.90
17948;DHT22;9099;47.958;11.366;2023-05-10T04:04:01;13.40;99.90
17948;DHT22;9099;47.958;11.366;2023-05-10T04:06:27;13.30;99.90
17948;DHT22;9099;47.958;11.366;2023-05-10T04:08:54;13.30;99.90
17948;DHT22;9099;47.958;11.366;2023-05-10T04:11:21;13.30;99.90
17948;DHT22;9099;47.958;11.366;2023-05-10T04:13:50;13.20;99.90
17948;DHT22;9099;47.958;11.366;2023-05-10T04:16:17;13.20;99.90
17948;DHT22;9099;47.958;11.366;2023-05-10T04:18:45;13.20;99.90
17948;DHT22;9099;47.958;11.366;2023-05-10T04:21:12;13.20;99.90
17948;DHT22;9099;47.958;11.366;2023-05-10T04:23:39;13.10;99.90
17948;DHT22;9099;47.958;11.366;2023-05-10T04:26:06;13.20;99.90
17948;DHT22;9099;47.958;11.366;2023-05-10T04:28:33;13.10;99.90
17948;DHT22;9099;47.958;11.366;2023-05-10T04:31:31;13.10;99.90
17948;DHT22;9099;47.958;11.366;2023-05-10T04:33:59;13.20;99.90
17948;DHT22;9099;47.958;11.366;2023-05-10T04:36:26;13.10;99.90
17948;DHT22;9099;47.958;11.366;2023-05-10T04:38:53;13.10;99.90
17948;DHT22;9099;47.958;11.366;2023-05-10T04:41:19;13.00;99.90
17948;DHT22;9099;47.958;11.366;2023-05-10T04:43:47;13.10;99.90
17948;DHT22;9099;47.958;11.366;2023-05-10T04:46:14;13.00;99.90
17948;DHT22;9099;47.958;11.366;2023-05-10T04:48:41;13.00;99.90
17948;DHT22;9099;47.958;11.366;2023-05-10T04:51:10;13.00;99.90
17948;DHT22;9099;47.958;11.366;2023-05-10T04:53:37;13.00;99.90
17948;DHT22;9099;47.958;11.366;2023-05-10T04:56:05;13.00;99.90
17948;DHT22;9099;47.958;11.366;2023-05-10T04:58:32;13.00;99.90
17948;DHT22;9099;47.958;11.366;2023-05-10T05:01:05;12.90;99.90
17948;DHT22;9099;47.958;11.366;2023-05-10T05:03:33;12.90;99.90
17948;DHT22;9099;47.958;11.366;2023-05-10T05:06:00;12.90;99.90
17948;DHT22;9099;47.958;11.366;2023-05-10T05:08:29;12.90;99.90
17948;DHT22;9099;47.958;11.366;2023-05-10T05:10:56;12.90;99.90
17948;DHT22;9099;47.958;11.366;2023-05-10T05:13:22;12.90;99.90
17948;DHT22;9099;47.958;11.366;2023-05-10T05:15:49;13.00;99.90
17948;DHT22;9099;47.958;11.366;2023-05-10T05:18:16;13.00;99.90
17948;DHT22;9099;47.958;11.366;2023-05-10T05:20:43;13.10;99.90
17948;DHT22;9099;47.958;11.366;2023-05-10T05:23:10;13.10;99.90
17948;DHT22;9099;47.958;11.366;2023-05-10T05:25:38;13.10;99.90
17948;DHT22;9099;47.958;11.366;2023-05-10T05:28:05;13.10;99.90
17948;DHT22;9099;47.958;11.366;2023-05-10T05:30:32;13.20;99.90
17948;DHT22;9099;47.958;11.366;2023-05-10T05:32:58;13.20;99.90
17948;DHT22;9099;47.958;11.366;2023-05-10T05:35:25;13.20;99.90
17948;DHT22;9099;47.958;11.366;2023-05-10T05:37:52;13.30;99.90
17948;DHT22;9099;47.958;11.366;2023-05-10T05:40:19;13.30;99.90
17948;DHT22;9099;47.958;11.366;2023-05-10T05:42:47;13.40;99.90
17948;DHT22;9099;47.958;11.366;2023-05-10T05:45:14;13.50;99.90
17948;DHT22;9099;47.958;11.366;2023-05-10T05:47:41;13.50;99.90
17948;DHT22;9099;47.958;11.366;2023-05-10T05:50:09;13.40;99.90
17948;DHT22;9099;47.958;11.366;2023-05-10T05:52:36;13.40;99.90
17948;DHT22;9099;47.958;11.366;2023-05-10T05:55:03;13.40;99.90
17948;DHT22;9099;47.958;11.366;2023-05-10T05:57:30;13.50;99.90
17948;DHT22;9099;47.958;11.366;2023-05-10T05:59:59;13.60;99.90
17948;DHT22;9099;47.958;11.366;2023-05-10T06:02:26;13.60;99.90
17948;DHT22;9099;47.958;11.366;2023-05-10T06:04:52;13.70;99.90
17948;DHT22;9099;47.958;11.366;2023-05-10T06:07:19;13.70;99.90
17948;DHT22;9099;47.958;11.366;2023-05-10T06:09:46;13.70;99.90
17948;DHT22;9099;47.958;11.366;2023-05-10T06:12:13;13.70;99.90
17948;DHT22;9099;47.958;11.366;2023-05-10T06:14:40;13.80;99.90
17948;DHT22;9099;47.958;11.366;2023-05-10T06:17:08;13.80;99.90
17948;DHT22;9099;47.958;11.366;2023-05-10T06:19:35;13.80;99.90
17948;DHT22;9099;47.958;11.366;2023-05-10T06:22:02;13.80;99.90
17948;DHT22;9099;47.958;11.366;2023-05-10T06:24:29;13.90;99.90
17948;DHT22;9099;47.958;11.366;2023-05-10T06:26:56;13.90;99.90
17948;DHT22;9099;47.958;11.366;2023-05-10T06:29:25;14.00;99.90
17948;DHT22;9099;47.958;11.366;2023-05-10T06:31:52;14.10;99.90
17948;DHT22;9099;47.958;11.366;2023-05-10T06:34:21;14.10;99.90
17948;DHT22;9099;47.958;11.366;2023-05-10T06:36:48;14.10;99.90
17948;DHT22;9099;47.958;11.366;2023-05-10T06:39:15;14.10;99.90
17948;DHT22;9099;47.958;11.366;2023-05-10T06:41:41;14.10;99.90
17948;DHT22;9099;47.958;11.366;2023-05-10T06:44:08;14.20;99.90
17948;DHT22;9099;47.958;11.366;2023-05-10T06:46:36;14.20;99.90
17948;DHT22;9099;47.958;11.366;2023-05-10T06:49:02;14.20;99.90
17948;DHT22;9099;47.958;11.366;2023-05-10T06:51:31;14.30;99.90
17948;DHT22;9099;47.958;11.366;2023-05-10T06:53:58;14.30;99.90
17948;DHT22;9099;47.958;11.366;2023-05-10T06:56:25;14.40;99.90
17948;DHT22;9099;47.958;11.366;2023-05-10T06:58:52;14.50;99.90
17948;DHT22;9099;47.958;11.366;2023-05-10T07:01:19;14.60;99.90
17948;DHT22;9099;47.958;11.366;2023-05-10T07:03:46;14.60;99.90
17948;DHT22;9099;47.958;11.366;2023-05-10T07:06:13;14.70;99.90
17948;DHT22;9099;47.958;11.366;2023-05-10T07:08:41;14.70;99.90
17948;DHT22;9099;47.958;11.366;2023-05-10T07:11:08;14.80;99.90
17948;DHT22;9099;47.958;11.366;2023-05-10T07:13:35;14.80;99.90
17948;DHT22;9099;47.958;11.366;2023-05-10T07:16:04;14.80;99.90
17948;DHT22;9099;47.958;11.366;2023-05-10T07:18:32;14.90;99.90
17948;DHT22;9099;47.958;11.366;2023-05-10T07:20:58;15.00;99.90
17948;DHT22;9099;47.958;11.366;2023-05-10T07:23:25;15.00;99.90
17948;DHT22;9099;47.958;11.366;2023-05-10T07:25:54;15.00;99.90
17948;DHT22;9099;47.958;11.366;2023-05-10T07:28:22;15.10;99.90
17948;DHT22;9099;47.958;11.366;2023-05-10T07:30:49;15.20;99.90
17948;DHT22;9099;47.958;11.366;2023-05-10T07:33:17;15.20;99.90
17948;DHT22;9099;47.958;11.366;2023-05-10T07:35:44;15.20;99.90
17948;DHT22;9099;47.958;11.366;2023-05-10T07:38:11;15.40;99.90
17948;DHT22;9099;47.958;11.366;2023-05-10T07:40:38;15.60;99.90
17948;DHT22;9099;47.958;11.366;2023-05-10T07:43:07;15.60;99.90
17948;DHT22;9099;47.958;11.366;2023-05-10T07:45:33;15.70;99.90
17948;DHT22;9099;47.958;11.366;2023-05-10T07:48:00;15.90;99.90
17948;DHT22;9099;47.958;11.366;2023-05-10T07:50:27;16.00;99.90
17948;DHT22;9099;47.958;11.366;2023-05-10T07:52:54;16.10;99.90
17948;DHT22;9099;47.958;11.366;2023-05-10T07:55:22;16.40;99.90
17948;DHT22;9099;47.958;11.366;2023-05-10T07:57:48;16.60;99.90
17948;DHT22;9099;47.958;11.366;2023-05-10T08:00:19;17.00;99.90
17948;DHT22;9099;47.958;11.366;2023-05-10T08:02:46;17.30;99.90
17948;DHT22;9099;47.958;11.366;2023-05-10T08:05:13;17.30;99.90
17948;DHT22;9099;47.958;11.366;2023-05-10T08:07:40;17.10;99.90
17948;DHT22;9099;47.958;11.366;2023-05-10T08:10:08;16.80;99.90
17948;DHT22;9099;47.958;11.366;2023-05-10T08:12:36;16.70;99.90
17948;DHT22;9099;47.958;11.366;2023-05-10T08:15:04;16.60;99.90
17948;DHT22;9099;47.958;11.366;2023-05-10T08:17:33;16.60;99.90
17948;DHT22;9099;47.958;11.366;2023-05-10T08:20:00;16.70;99.90
17948;DHT22;9099;47.958;11.366;2023-05-10T08:22:27;16.80;99.90
17948;DHT22;9099;47.958;11.366;2023-05-10T08:24:54;16.90;99.90
17948;DHT22;9099;47.958;11.366;2023-05-10T08:27:21;17.10;99.90
17948;DHT22;9099;47.958;11.366;2023-05-10T08:29:47;17.30;99.90
17948;DHT22;9099;47.958;11.366;2023-05-10T08:32:14;17.30;99.90
17948;DHT22;9099;47.958;11.366;2023-05-10T08:34:43;17.30;99.90
17948;DHT22;9099;47.958;11.366;2023-05-10T08:37:09;17.20;99.90
17948;DHT22;9099;47.958;11.366;2023-05-10T08:39:38;17.00;99.90
17948;DHT22;9099;47.958;11.366;2023-05-10T08:42:05;16.80;99.90
17948;DHT22;9099;47.958;11.366;2023-05-10T08:44:35;16.60;99.90
17948;DHT22;9099;47.958;11.366;2023-05-10T08:47:04;16.40;99.90
17948;DHT22;9099;47.958;11.366;2023-05-10T08:49:32;16.20;99.90
17948;DHT22;9099;47.958;11.366;2023-05-10T08:52:04;16.10;99.90
17948;DHT22;9099;47.958;11.366;2023-05-10T08:54:32;16.10;99.90
17948;DHT22;9099;47.958;11.366;2023-05-10T08:56:59;16.10;99.90
17948;DHT22;9099;47.958;11.366;2023-05-10T08:59:27;16.10;99.90
17948;DHT22;9099;47.958;11.366;2023-05-10T09:01:56;16.20;99.90
17948;DHT22;9099;47.958;11.366;2023-05-10T09:04:24;16.30;99.90
17948;DHT22;9099;47.958;11.366;2023-05-10T09:06:51;16.40;99.90
17948;DHT22;9099;47.958;11.366;2023-05-10T09:09:19;16.60;99.90
17948;DHT22;9099;47.958;11.366;2023-05-10T09:11:47;16.80;99.90
17948;DHT22;9099;47.958;11.366;2023-05-10T09:14:15;16.90;99.90
17948;DHT22;9099;47.958;11.366;2023-05-10T09:16:42;17.00;99.90
17948;DHT22;9099;47.958;11.366;2023-05-10T09:19:09;17.00;99.90
17948;DHT22;9099;47.958;11.366;2023-05-10T09:21:37;16.90;99.90
17948;DHT22;9099;47.958;11.366;2023-05-10T09:24:05;16.80;99.90
17948;DHT22;9099;47.958;11.366;2023-05-10T09:26:34;16.60;99.90
17948;DHT22;9099;47.958;11.366;2023-05-10T09:29:02;16.50;99.90
17948;DHT22;9099;47.958;11.366;2023-05-10T09:31:46;16.40;99.90
17948;DHT22;9099;47.958;11.366;2023-05-10T09:34:16;16.30;99.90
17948;DHT22;9099;47.958;11.366;2023-05-10T09:36:51;16.30;99.90
17948;DHT22;9099;47.958;11.366;2023-05-10T09:39:19;16.10;99.90
17948;DHT22;9099;47.958;11.366;2023-05-10T09:41:47;16.10;99.90
17948;DHT22;9099;47.958;11.366;2023-05-10T09:44:17;16.20;99.90
17948;DHT22;9099;47.958;11.366;2023-05-10T09:46:49;16.20;99.90
17948;DHT22;9099;47.958;11.366;2023-05-10T09:49:18;16.50;99.90
17948;DHT22;9099;47.958;11.366;2023-05-10T09:51:45;16.80;99.90
17948;DHT22;9099;47.958;11.366;2023-05-10T09:54:13;17.30;99.90
17948;DHT22;9099;47.958;11.366;2023-05-10T09:56:40;17.90;99.90
17948;DHT22;9099;47.958;11.366;2023-05-10T09:59:10;18.20;99.90
17948;DHT22;9099;47.958;11.366;2023-05-10T10:01:37;18.40;99.90
17948;DHT22;9099;47.958;11.366;2023-05-10T10:04:04;18.50;99.90
17948;DHT22;9099;47.958;11.366;2023-05-10T10:06:35;18.60;99.90
17948;DHT22;9099;47.958;11.366;2023-05-10T10:09:03;18.60;99.90
17948;DHT22;9099;47.958;11.366;2023-05-10T10:11:30;18.40;99.90
17948;DHT22;9099;47.958;11.366;2023-05-10T10:13:58;18.30;99.90
17948;DHT22;9099;47.958;11.366;2023-05-10T10:16:27;18.10;99.90
17948;DHT22;9099;47.958;11.366;2023-05-10T10:18:55;17.90;99.90
17948;DHT22;9099;47.958;11.366;2023-05-10T10:21:22;17.80;99.90
17948;DHT22;9099;47.958;11.366;2023-05-10T10:23:49;17.60;99.90
17948;DHT22;9099;47.958;11.366;2023-05-10T10:26:17;17.40;99.90
17948;DHT22;9099;47.958;11.366;2023-05-10T10:28:50;17.20;99.90
17948;DHT22;9099;47.958;11.366;2023-05-10T10:31:27;17.10;99.90
17948;DHT22;9099;47.958;11.366;2023-05-10T10:34:05;17.00;99.90
17948;DHT22;9099;47.958;11.366;2023-05-10T10:36:34;16.90;99.90
17948;DHT22;9099;47.958;11.366;2023-05-10T10:39:09;16.80;99.90
17948;DHT22;9099;47.958;11.366;2023-05-10T10:41:38;16.80;99.90
17948;DHT22;9099;47.958;11.366;2023-05-10T10:44:36;16.80;99.90
17948;DHT22;9099;47.958;11.366;2023-05-10T10:47:06;16.70;99.90
17948;DHT22;9099;47.958;11.366;2023-05-10T10:49:47;16.40;99.90
17948;DHT22;9099;47.958;11.366;2023-05-10T10:52:20;15.90;99.90
17948;DHT22;9099;47.958;11.366;2023-05-10T10:54:50;15.40;99.90
17948;DHT22;9099;47.958;11.366;2023-05-10T10:57:19;15.00;99.90
17948;DHT22;9099;47.958;11.366;2023-05-10T10:59:47;14.80;99.90
17948;DHT22;9099;47.958;11.366;2023-05-10T11:02:43;14.70;99.90
17948;DHT22;9099;47.958;11.366;2023-05-10T11:05:25;14.50;99.90
17948;DHT22;9099;47.958;11.366;2023-05-10T11:07:52;14.30;99.90
17948;DHT22;9099;47.958;11.366;2023-05-10T11:13:43;14.20;99.90
17948;DHT22;9099;47.958;11.366;2023-05-10T11:16:15;14.20;99.90
17948;DHT22;9099;47.958;11.366;2023-05-10T11:18:55;14.10;99.90
17948;DHT22;9099;47.958;11.366;2023-05-10T11:21:23;14.00;99.90
17948;DHT22;9099;47.958;11.366;2023-05-10T11:23:51;13.90;99.90
17948;DHT22;9099;47.958;11.366;2023-05-10T11:26:21;13.80;99.90
17948;DHT22;9099;47.958;11.366;2023-05-10T11:28:52;13.80;99.90
17948;DHT22;9099;47.958;11.366;2023-05-10T11:31:19;13.80;99.90
17948;DHT22;9099;47.958;11.366;2023-05-10T11:33:48;13.80;99.90
17948;DHT22;9099;47.958;11.366;2023-05-10T11:36:18;13.80;99.90
17948;DHT22;9099;47.958;11.366;2023-05-10T11:38:46;13.90;99.90
17948;DHT22;9099;47.958;11.366;2023-05-10T11:41:14;13.80;99.90
17948;DHT22;9099;47.958;11.366;2023-05-10T11:43:42;13.90;99.90
17948;DHT22;9099;47.958;11.366;2023-05-10T11:46:11;13.90;99.90
17948;DHT22;9099;47.958;11.366;2023-05-10T11:48:39;14.00;99.90
17948;DHT22;9099;47.958;11.366;2023-05-10T11:51:06;14.10;99.90
17948;DHT22;9099;47.958;11.366;2023-05-10T11:53:35;13.90;99.90
17948;DHT22;9099;47.958;11.366;2023-05-10T11:56:05;13.90;99.90
17948;DHT22;9099;47.958;11.366;2023-05-10T11:58:33;14.10;99.90
17948;DHT22;9099;47.958;11.366;2023-05-10T12:01:00;14.20;99.90
17948;DHT22;9099;47.958;11.366;2023-05-10T12:03:28;14.20;99.90
17948;DHT22;9099;47.958;11.366;2023-05-10T12:05:56;14.40;99.90
17948;DHT22;9099;47.958;11.366;2023-05-10T12:08:25;14.40;99.90
17948;DHT22;9099;47.958;11.366;2023-05-10T12:11:03;14.50;99.90
17948;DHT22;9099;47.958;11.366;2023-05-10T12:13:30;14.60;99.90
17948;DHT22;9099;47.958;11.366;2023-05-10T12:15:57;14.70;99.90
17948;DHT22;9099;47.958;11.366;2023-05-10T12:18:25;14.80;99.90
17948;DHT22;9099;47.958;11.366;2023-05-10T12:20:52;14.60;99.90
17948;DHT22;9099;47.958;11.366;2023-05-10T12:23:20;14.50;99.90
17948;DHT22;9099;47.958;11.366;2023-05-10T12:25:47;14.40;99.90
17948;DHT22;9099;47.958;11.366;2023-05-10T12:28:19;14.50;99.90
17948;DHT22;9099;47.958;11.366;2023-05-10T12:30:46;14.60;99.90
17948;DHT22;9099;47.958;11.366;2023-05-10T12:36:38;14.50;99.90
17948;DHT22;9099;47.958;11.366;2023-05-10T12:39:05;14.30;99.90
17948;DHT22;9099;47.958;11.366;2023-05-10T12:41:32;14.30;99.90
17948;DHT22;9099;47.958;11.366;2023-05-10T12:44:00;14.30;99.90
17948;DHT22;9099;47.958;11.366;2023-05-10T12:46:27;14.40;99.90
17948;DHT22;9099;47.958;11.366;2023-05-10T12:48:54;14.50;99.90
17948;DHT22;9099;47.958;11.366;2023-05-10T12:51:21;14.50;99.90
17948;DHT22;9099;47.958;11.366;2023-05-10T12:53:48;14.50;99.90
17948;DHT22;9099;47.958;11.366;2023-05-10T12:56:15;14.60;99.90
17948;DHT22;9099;47.958;11.366;2023-05-10T12:58:42;14.50;99.90
17948;DHT22;9099;47.958;11.366;2023-05-10T13:01:14;14.60;99.90
17948;DHT22;9099;47.958;11.366;2023-05-10T13:03:41;14.50;99.90
17948;DHT22;9099;47.958;11.366;2023-05-10T13:06:09;14.60;99.90
17948;DHT22;9099;47.958;11.366;2023-05-10T13:08:36;14.60;99.90
17948;DHT22;9099;47.958;11.366;2023-05-10T13:11:03;14.60;99.90
17948;DHT22;9099;47.958;11.366;2023-05-10T13:13:30;14.70;99.90
17948;DHT22;9099;47.958;11.366;2023-05-10T13:15:56;14.80;99.90
17948;DHT22;9099;47.958;11.366;2023-05-10T13:18:25;14.80;99.90
17948;DHT22;9099;47.958;11.366;2023-05-10T13:20:53;14.90;99.90
17948;DHT22;9099;47.958;11.366;2023-05-10T13:23:21;14.70;99.90
17948;DHT22;9099;47.958;11.366;2023-05-10T13:25:47;14.70;99.90
17948;DHT22;9099;47.958;11.366;2023-05-10T13:28:15;14.60;99.90
17948;DHT22;9099;47.958;11.366;2023-05-10T13:30:41;14.20;99.90
17948;DHT22;9099;47.958;11.366;2023-05-10T13:33:08;14.00;99.90
17948;DHT22;9099;47.958;11.366;2023-05-10T13:35:36;14.10;99.90
17948;DHT22;9099;47.958;11.366;2023-05-10T13:38:03;14.10;99.90
17948;DHT22;9099;47.958;11.366;2023-05-10T13:40:33;14.00;99.90
17948;DHT22;9099;47.958;11.366;2023-05-10T13:43:01;13.90;99.90
17948;DHT22;9099;47.958;11.366;2023-05-10T13:45:28;13.80;99.90
17948;DHT22;9099;47.958;11.366;2023-05-10T13:47:54;13.80;99.90
17948;DHT22;9099;47.958;11.366;2023-05-10T13:50:21;13.70;99.90
17948;DHT22;9099;47.958;11.366;2023-05-10T13:52:50;13.70;99.90
17948;DHT22;9099;47.958;11.366;2023-05-10T13:55:16;13.80;99.90
17948;DHT22;9099;47.958;11.366;2023-05-10T13:57:43;13.70;99.90
17948;DHT22;9099;47.958;11.366;2023-05-10T14:00:11;13.60;99.90
17948;DHT22;9099;47.958;11.366;2023-05-10T14:02:38;13.60;99.90
17948;DHT22;9099;47.958;11.366;2023-05-10T14:05:05;13.50;99.90
17948;DHT22;9099;47.958;11.366;2023-05-10T14:07:32;13.40;99.90
17948;DHT22;9099;47.958;11.366;2023-05-10T14:10:00;13.40;99.90
17948;DHT22;9099;47.958;11.366;2023-05-10T14:12:27;13.50;99.90
17948;DHT22;9099;47.958;11.366;2023-05-10T14:14:54;13.50;99.90
17948;DHT22;9099;47.958;11.366;2023-05-10T14:17:21;13.50;99.90
17948;DHT22;9099;47.958;11.366;2023-05-10T14:19:48;13.40;99.90
17948;DHT22;9099;47.958;11.366;2023-05-10T14:22:15;13.20;99.90
17948;DHT22;9099;47.958;11.366;2023-05-10T14:24:42;13.20;99.90
17948;DHT22;9099;47.958;11.366;2023-05-10T14:27:13;13.20;99.90
17948;DHT22;9099;47.958;11.366;2023-05-10T14:29:40;13.20;99.90
17948;DHT22;9099;47.958;11.366;2023-05-10T14:32:07;13.30;99.90
17948;DHT22;9099;47.958;11.366;2023-05-10T14:34:34;13.30;99.90
17948;DHT22;9099;47.958;11.366;2023-05-10T14:37:01;13.40;99.90
17948;DHT22;9099;47.958;11.366;2023-05-10T14:39:28;13.50;99.90
17948;DHT22;9099;47.958;11.366;2023-05-10T14:41:55;13.60;99.90
17948;DHT22;9099;47.958;11.366;2023-05-10T14:44:23;13.70;99.90
17948;DHT22;9099;47.958;11.366;2023-05-10T14:46:50;13.70;99.90
17948;DHT22;9099;47.958;11.366;2023-05-10T14:49:17;13.60;99.90
17948;DHT22;9099;47.958;11.366;2023-05-10T14:51:44;13.60;99.90
17948;DHT22;9099;47.958;11.366;2023-05-10T14:54:11;13.60;99.90
17948;DHT22;9099;47.958;11.366;2023-05-10T14:56:38;13.50;99.90
17948;DHT22;9099;47.958;11.366;2023-05-10T14:59:06;13.50;99.90
17948;DHT22;9099;47.958;11.366;2023-05-10T15:01:35;13.40;99.90
17948;DHT22;9099;47.958;11.366;2023-05-10T15:04:02;13.40;99.90
17948;DHT22;9099;47.958;11.366;2023-05-10T15:06:33;13.40;99.90
17948;DHT22;9099;47.958;11.366;2023-05-10T15:09:01;13.40;99.90
17948;DHT22;9099;47.958;11.366;2023-05-10T15:11:28;13.40;99.90
17948;DHT22;9099;47.958;11.366;2023-05-10T15:13:55;13.30;99.90
17948;DHT22;9099;47.958;11.366;2023-05-10T15:16:22;13.20;99.90
17948;DHT22;9099;47.958;11.366;2023-05-10T15:18:50;13.20;99.90
17948;DHT22;9099;47.958;11.366;2023-05-10T15:21:17;13.20;99.90
17948;DHT22;9099;47.958;11.366;2023-05-10T15:23:44;13.10;99.90
17948;DHT22;9099;47.958;11.366;2023-05-10T15:26:11;13.10;99.90
17948;DHT22;9099;47.958;11.366;2023-05-10T15:28:38;13.10;99.90
17948;DHT22;9099;47.958;11.366;2023-05-10T15:31:05;13.10;99.90
17948;DHT22;9099;47.958;11.366;2023-05-10T15:33:32;13.10;99.90
17948;DHT22;9099;47.958;11.366;2023-05-10T15:36:00;13.00;99.90
17948;DHT22;9099;47.958;11.366;2023-05-10T15:38:27;13.00;99.90
17948;DHT22;9099;47.958;11.366;2023-05-10T15:40:56;12.90;99.90
17948;DHT22;9099;47.958;11.366;2023-05-10T15:43:23;12.90;99.90
17948;DHT22;9099;47.958;11.366;2023-05-10T15:45:50;12.80;99.90
17948;DHT22;9099;47.958;11.366;2023-05-10T15:48:17;12.80;99.90